sensor_id;sensor_type;location;lat;lon;timestamp;pressure;altitude;pressure_sealevel;temperature;humidity
72950;BME280;64868;45.710;9.590;2023-05-20T00:01:14;99048.75;;;13.86;92.31
72950;BME280;64868;45.710;9.590;2023-05-20T00:03:46;99046.31;;;13.83;92.78
72950;BME280;64868;45.710;9.590;2023-05-20T00:06:19;99032.88;;;13.80;92.21
72950;BME280;64868;45.710;9.590;2023-05-20T00:08:52;99029.53;;;13.76;92.80
72950;BME280;64868;45.710;9.590;2023-05-20T00:11:24;99028.75;;;13.74;93.11
72950;BME280;64868;45.710;9.590;2023-05-20T00:13:57;99044.44;;;13.83;93.00
72950;BME280;64868;45.710;9.590;2023-05-20T00:16:27;99033.47;;;13.83;92.56
72950;BME280;64868;45.710;9.590;2023-05-20T00:18:58;99026.84;;;13.86;92.60
72950;BME280;64868;45.710;9.590;2023-05-20T00:21:30;99027.84;;;13.85;92.71
72950;BME280;64868;45.710;9.590;2023-05-20T00:24:03;99018.16;;;13.81;92.38
72950;BME280;64868;45.710;9.590;2023-05-20T00:26:33;99026.53;;;13.79;92.32
72950;BME280;64868;45.710;9.590;2023-05-20T00:29:06;99034.78;;;13.68;91.99
72950;BME280;64868;45.710;9.590;2023-05-20T00:31:36;99030.44;;;13.66;92.56
72950;BME280;64868;45.710;9.590;2023-05-20T00:34:06;99019.72;;;13.62;92.27
72950;BME280;64868;45.710;9.590;2023-05-20T00:36:39;99027.44;;;13.69;92.36
72950;BME280;64868;45.710;9.590;2023-05-20T00:39:12;99022.41;;;13.74;91.95
72950;BME280;64868;45.710;9.590;2023-05-20T00:41:42;99023.53;;;13.71;93.01
72950;BME280;64868;45.710;9.590;2023-05-20T00:44:14;99015.81;;;13.76;92.13
72950;BME280;64868;45.710;9.590;2023-05-20T00:46:47;99016.28;;;13.81;92.55
72950;BME280;64868;45.710;9.590;2023-05-20T00:49:19;99021.03;;;13.79;92.02
72950;BME280;64868;45.710;9.590;2023-05-20T00:51:52;99019.88;;;13.82;91.84
72950;BME280;64868;45.710;9.590;2023-05-20T00:54:23;99012.81;;;13.79;91.81
72950;BME280;64868;45.710;9.590;2023-05-20T00:56:55;99010.94;;;13.80;90.79
72950;BME280;64868;45.710;9.590;2023-05-20T00:59:28;99017.91;;;13.84;90.85
72950;BME280;64868;45.710;9.590;2023-05-20T01:01:56;99018.91;;;13.83;91.10
72950;BME280;64868;45.710;9.590;2023-05-20T01:04:26;99017.50;;;13.88;91.17
72950;BME280;64868;45.710;9.590;2023-05-20T01:06:58;99020.38;;;13.87;91.16
72950;BME280;64868;45.710;9.590;2023-05-20T01:09:27;99019.63;;;13.85;91.11
72950;BME280;64868;45.710;9.590;2023-05-20T01:12:04;99021.66;;;13.83;90.77
72950;BME280;64868;45.710;9.590;2023-05-20T01:14:39;99020.38;;;13.87;90.47
72950;BME280;64868;45.710;9.590;2023-05-20T01:17:11;99018.63;;;13.86;89.96
72950;BME280;64868;45.710;9.590;2023-05-20T01:19:44;99019.78;;;13.83;91.45
72950;BME280;64868;45.710;9.590;2023-05-20T01:22:16;99016.03;;;13.84;90.17
72950;BME280;64868;45.710;9.590;2023-05-20T01:24:47;99013.28;;;13.84;90.41
72950;BME280;64868;45.710;9.590;2023-05-20T01:27:15;99014.69;;;13.79;91.01
72950;BME280;64868;45.710;9.590;2023-05-20T01:29:46;99010.94;;;13.80;91.08
72950;BME280;64868;45.710;9.590;2023-05-20T01:32:27;99014.03;;;13.86;90.90
72950;BME280;64868;45.710;9.590;2023-05-20T01:35:00;99011.41;;;13.85;90.90
72950;BME280;64868;45.710;9.590;2023-05-20T01:37:33;99015.88;;;13.86;91.12
72950;BME280;64868;45.710;9.590;2023-05-20T01:40:09;98997.97;;;13.82;91.27
72950;BME280;64868;45.710;9.590;2023-05-20T01:42:41;99004.44;;;13.81;90.97
72950;BME280;64868;45.710;9.590;2023-05-20T01:45:12;99006.31;;;13.80;91.72
72950;BME280;64868;45.710;9.590;2023-05-20T01:47:46;99010.69;;;13.83;91.24
72950;BME280;64868;45.710;9.590;2023-05-20T01:50:18;98998.81;;;13.82;90.71
72950;BME280;64868;45.710;9.590;2023-05-20T01:52:51;98995.56;;;13.68;92.29
72950;BME280;64868;45.710;9.590;2023-05-20T01:55:21;99000.75;;;13.71;91.63
72950;BME280;64868;45.710;9.590;2023-05-20T01:57:53;98998.78;;;13.73;91.55
72950;BME280;64868;45.710;9.590;2023-05-20T02:00:26;98991.56;;;13.72;91.96
72950;BME280;64868;45.710;9.590;2023-05-20T02:02:59;98984.63;;;13.68;91.75
72950;BME280;64868;45.710;9.590;2023-05-20T02:05:31;98986.81;;;13.74;92.41
72950;BME280;64868;45.710;9.590;2023-05-20T02:08:02;98986.69;;;13.75;91.32
72950;BME280;64868;45.710;9.590;2023-05-20T02:10:34;98984.31;;;13.71;91.55
72950;BME280;64868;45.710;9.590;2023-05-20T02:13:04;98982.94;;;13.76;92.34
72950;BME280;64868;45.710;9.590;2023-05-20T02:15:34;98983.06;;;13.75;92.45
72950;BME280;64868;45.710;9.590;2023-05-20T02:18:05;98970.63;;;13.71;92.19
72950;BME280;64868;45.710;9.590;2023-05-20T02:20:38;98983.06;;;13.75;92.67
72950;BME280;64868;45.710;9.590;2023-05-20T02:23:08;98970.91;;;13.68;92.67
72950;BME280;64868;45.710;9.590;2023-05-20T02:25:41;98976.66;;;13.65;92.56
72950;BME280;64868;45.710;9.590;2023-05-20T02:28:14;98968.44;;;13.65;92.72
72950;BME280;64868;45.710;9.590;2023-05-20T02:30:47;98960.47;;;13.61;92.65
72950;BME280;64868;45.710;9.590;2023-05-20T02:33:22;98963.72;;;13.55;92.15
72950;BME280;64868;45.710;9.590;2023-05-20T02:35:55;98960.13;;;13.55;93.29
72950;BME280;64868;45.710;9.590;2023-05-20T02:38:28;98952.78;;;13.55;93.09
72950;BME280;64868;45.710;9.590;2023-05-20T02:41:00;98955.13;;;13.60;92.84
72950;BME280;64868;45.710;9.590;2023-05-20T02:43:33;98953.97;;;13.62;92.94
72950;BME280;64868;45.710;9.590;2023-05-20T02:46:08;98948.75;;;13.59;92.65
72950;BME280;64868;45.710;9.590;2023-05-20T02:48:39;98948.75;;;13.59;92.81
72950;BME280;64868;45.710;9.590;2023-05-20T02:51:11;98947.91;;;13.59;92.83
72950;BME280;64868;45.710;9.590;2023-05-20T02:53:44;98946.94;;;13.60;92.59
72950;BME280;64868;45.710;9.590;2023-05-20T02:56:14;98953.72;;;13.66;92.69
72950;BME280;64868;45.710;9.590;2023-05-20T02:58:47;98946.97;;;13.70;92.95
72950;BME280;64868;45.710;9.590;2023-05-20T03:01:17;98943.53;;;13.68;91.69
72950;BME280;64868;45.710;9.590;2023-05-20T03:03:49;98940.88;;;13.66;91.84
72950;BME280;64868;45.710;9.590;2023-05-20T03:06:22;98939.50;;;13.72;92.58
72950;BME280;64868;45.710;9.590;2023-05-20T03:08:55;98937.75;;;13.71;91.63
72950;BME280;64868;45.710;9.590;2023-05-20T03:11:27;98933.69;;;13.65;92.15
72950;BME280;64868;45.710;9.590;2023-05-20T03:13:58;98914.69;;;13.52;92.24
72950;BME280;64868;45.710;9.590;2023-05-20T03:16:30;98936.53;;;13.63;92.13
72950;BME280;64868;45.710;9.590;2023-05-20T03:19:04;98932.06;;;13.62;92.38
72950;BME280;64868;45.710;9.590;2023-05-20T03:21:34;98947.63;;;13.62;92.61
72950;BME280;64868;45.710;9.590;2023-05-20T03:24:07;98931.47;;;13.59;92.54
72950;BME280;64868;45.710;9.590;2023-05-20T03:26:39;98937.50;;;13.53;92.15
72950;BME280;64868;45.710;9.590;2023-05-20T03:29:12;98928.25;;;13.54;92.78
72950;BME280;64868;45.710;9.590;2023-05-20T03:31:45;98925.94;;;13.49;92.45
72950;BME280;64868;45.710;9.590;2023-05-20T03:34:15;98924.78;;;13.52;92.07
72950;BME280;64868;45.710;9.590;2023-05-20T03:36:47;98924.06;;;13.50;92.11
72950;BME280;64868;45.710;9.590;2023-05-20T03:39:20;98919.66;;;13.58;92.62
72950;BME280;64868;45.710;9.590;2023-05-20T03:41:53;98925.00;;;13.60;92.21
72950;BME280;64868;45.710;9.590;2023-05-20T03:44:25;98918.03;;;13.56;92.53
72950;BME280;64868;45.710;9.590;2023-05-20T03:46:58;98916.91;;;13.58;92.09
72950;BME280;64868;45.710;9.590;2023-05-20T03:49:31;98918.78;;;13.58;91.94
72950;BME280;64868;45.710;9.590;2023-05-20T03:52:01;98923.41;;;13.57;91.15
72950;BME280;64868;45.710;9.590;2023-05-20T03:54:33;98922.84;;;13.63;91.71
72950;BME280;64868;45.710;9.590;2023-05-20T03:57:06;98901.75;;;13.54;90.86
72950;BME280;64868;45.710;9.590;2023-05-20T03:59:37;98921.38;;;13.59;92.26
72950;BME280;64868;45.710;9.590;2023-05-20T04:02:09;98922.47;;;13.68;91.00
72950;BME280;64868;45.710;9.590;2023-05-20T04:04:42;98915.63;;;13.62;91.28
72950;BME280;64868;45.710;9.590;2023-05-20T04:07:14;98912.03;;;13.62;90.99
72950;BME280;64868;45.710;9.590;2023-05-20T04:09:47;98922.13;;;13.61;90.75
72950;BME280;64868;45.710;9.590;2023-05-20T04:12:17;98917.66;;;13.60;91.29
72950;BME280;64868;45.710;9.590;2023-05-20T04:14:50;98914.25;;;13.68;90.77
72950;BME280;64868;45.710;9.590;2023-05-20T04:17:23;98918.31;;;13.74;90.95
72950;BME280;64868;45.710;9.590;2023-05-20T04:19:55;98907.91;;;13.68;90.73
72950;BME280;64868;45.710;9.590;2023-05-20T04:22:28;98905.34;;;13.76;90.35
72950;BME280;64868;45.710;9.590;2023-05-20T04:25:00;98907.59;;;13.71;90.77
72950;BME280;64868;45.710;9.590;2023-05-20T04:27:33;98917.03;;;13.78;89.65
72950;BME280;64868;45.710;9.590;2023-05-20T04:30:07;98910.34;;;13.71;90.21
72950;BME280;64868;45.710;9.590;2023-05-20T04:32:40;98904.41;;;13.66;90.20
72950;BME280;64868;45.710;9.590;2023-05-20T04:35:12;98900.53;;;13.68;90.70
72950;BME280;64868;45.710;9.590;2023-05-20T04:37:43;98891.47;;;13.68;91.04
72950;BME280;64868;45.710;9.590;2023-05-20T04:40:20;98903.59;;;13.75;91.00
72950;BME280;64868;45.710;9.590;2023-05-20T04:42:50;98894.13;;;13.79;90.38
72950;BME280;64868;45.710;9.590;2023-05-20T04:45:22;98908.53;;;13.81;90.47
72950;BME280;64868;45.710;9.590;2023-05-20T04:47:56;98898.72;;;13.78;90.36
72950;BME280;64868;45.710;9.590;2023-05-20T04:50:29;98884.41;;;13.75;90.78
72950;BME280;64868;45.710;9.590;2023-05-20T04:53:01;98876.69;;;13.80;90.26
72950;BME280;64868;45.710;9.590;2023-05-20T04:55:34;98885.75;;;13.80;90.98
72950;BME280;64868;45.710;9.590;2023-05-20T04:58:04;98885.75;;;13.80;90.69
72950;BME280;64868;45.710;9.590;2023-05-20T05:00:37;98877.97;;;13.85;90.28
72950;BME280;64868;45.710;9.590;2023-05-20T05:03:09;98877.97;;;13.85;90.85
72950;BME280;64868;45.710;9.590;2023-05-20T05:05:41;98884.47;;;13.84;89.90
72950;BME280;64868;45.710;9.590;2023-05-20T05:08:14;98887.81;;;13.88;90.42
72950;BME280;64868;45.710;9.590;2023-05-20T05:10:44;98881.47;;;13.87;90.11
72950;BME280;64868;45.710;9.590;2023-05-20T05:13:14;98880.47;;;13.88;90.22
72950;BME280;64868;45.710;9.590;2023-05-20T05:15:47;98886.81;;;13.89;89.77
72950;BME280;64868;45.710;9.590;2023-05-20T05:18:19;98882.19;;;13.90;89.91
72950;BME280;64868;45.710;9.590;2023-05-20T05:20:59;98888.16;;;13.95;89.92
72950;BME280;64868;45.710;9.590;2023-05-20T05:23:29;98878.91;;;13.96;88.76
72950;BME280;64868;45.710;9.590;2023-05-20T05:26:00;98868.53;;;13.99;86.99
72950;BME280;64868;45.710;9.590;2023-05-20T05:28:33;98865.44;;;14.14;86.76
72950;BME280;64868;45.710;9.590;2023-05-20T05:31:03;98857.47;;;14.10;85.93
72950;BME280;64868;45.710;9.590;2023-05-20T05:33:33;98854.16;;;14.17;86.41
72950;BME280;64868;45.710;9.590;2023-05-20T05:36:03;98850.72;;;14.24;85.48
72950;BME280;64868;45.710;9.590;2023-05-20T05:38:33;98852.50;;;14.35;85.03
72950;BME280;64868;45.710;9.590;2023-05-20T05:41:06;98844.28;;;14.35;84.68
72950;BME280;64868;45.710;9.590;2023-05-20T05:43:36;98845.28;;;14.34;84.13
72950;BME280;64868;45.710;9.590;2023-05-20T05:46:06;98845.88;;;14.38;84.56
72950;BME280;64868;45.710;9.590;2023-05-20T05:48:38;98836.63;;;14.39;84.85
72950;BME280;64868;45.710;9.590;2023-05-20T05:51:11;98834.94;;;14.47;84.88
72950;BME280;64868;45.710;9.590;2023-05-20T05:53:44;98838.72;;;14.56;83.67
72950;BME280;64868;45.710;9.590;2023-05-20T05:56:12;98830.81;;;14.63;83.14
72950;BME280;64868;45.710;9.590;2023-05-20T05:58:44;98824.03;;;14.67;84.39
72950;BME280;64868;45.710;9.590;2023-05-20T06:01:16;98835.28;;;14.83;83.83
72950;BME280;64868;45.710;9.590;2023-05-20T06:03:47;98841.34;;;14.96;82.47
72950;BME280;64868;45.710;9.590;2023-05-20T06:06:17;98834.00;;;15.06;82.00
72950;BME280;64868;45.710;9.590;2023-05-20T06:08:47;98837.59;;;15.17;80.83
72950;BME280;64868;45.710;9.590;2023-05-20T06:11:20;98830.97;;;15.19;81.64
72950;BME280;64868;45.710;9.590;2023-05-20T06:13:52;98831.81;;;15.39;82.13
72950;BME280;64868;45.710;9.590;2023-05-20T06:16:22;98830.94;;;15.39;81.08
72950;BME280;64868;45.710;9.590;2023-05-20T06:18:55;98830.78;;;15.40;81.40
72950;BME280;64868;45.710;9.590;2023-05-20T06:21:28;98829.47;;;15.44;80.00
72950;BME280;64868;45.710;9.590;2023-05-20T06:23:58;98829.06;;;15.29;81.32
72950;BME280;64868;45.710;9.590;2023-05-20T06:26:28;98834.69;;;15.38;80.14
72950;BME280;64868;45.710;9.590;2023-05-20T06:29:01;98833.53;;;15.40;80.41
72950;BME280;64868;45.710;9.590;2023-05-20T06:31:31;98835.84;;;15.35;80.66
72950;BME280;64868;45.710;9.590;2023-05-20T06:34:04;98825.31;;;15.30;79.79
72950;BME280;64868;45.710;9.590;2023-05-20T06:36:34;98835.72;;;15.27;80.53
72950;BME280;64868;45.710;9.590;2023-05-20T06:39:01;98827.63;;;15.25;80.92
72950;BME280;64868;45.710;9.590;2023-05-20T06:41:32;98831.09;;;15.18;80.08
72950;BME280;64868;45.710;9.590;2023-05-20T06:44:04;98834.88;;;15.17;81.42
72950;BME280;64868;45.710;9.590;2023-05-20T06:46:37;98838.63;;;15.16;81.22
72950;BME280;64868;45.710;9.590;2023-05-20T06:49:07;98832.66;;;15.30;79.55
72950;BME280;64868;45.710;9.590;2023-05-20T06:51:40;98827.50;;;15.27;80.54
72950;BME280;64868;45.710;9.590;2023-05-20T06:54:10;98837.91;;;15.23;80.57
72950;BME280;64868;45.710;9.590;2023-05-20T06:56:43;98834.72;;;15.18;81.17
72950;BME280;64868;45.710;9.590;2023-05-20T06:59:15;98833.28;;;15.04;81.85
72950;BME280;64868;45.710;9.590;2023-05-20T07:01:46;98836.03;;;14.95;81.88
72950;BME280;64868;45.710;9.590;2023-05-20T07:04:16;98851.34;;;14.97;82.24
72950;BME280;64868;45.710;9.590;2023-05-20T07:06:48;98843.56;;;14.93;83.04
72950;BME280;64868;45.710;9.590;2023-05-20T07:09:18;98847.59;;;14.98;82.37
72950;BME280;64868;45.710;9.590;2023-05-20T07:11:46;98851.47;;;14.96;82.70
72950;BME280;64868;45.710;9.590;2023-05-20T07:14:16;98847.16;;;14.93;83.42
72950;BME280;64868;45.710;9.590;2023-05-20T07:16:49;98839.91;;;14.92;82.80
72950;BME280;64868;45.710;9.590;2023-05-20T07:19:21;98851.94;;;15.01;83.25
72950;BME280;64868;45.710;9.590;2023-05-20T07:21:54;98854.06;;;15.07;82.83
72950;BME280;64868;45.710;9.590;2023-05-20T07:24:26;98850.34;;;15.08;83.00
72950;BME280;64868;45.710;9.590;2023-05-20T07:26:59;98851.91;;;15.11;82.68
72950;BME280;64868;45.710;9.590;2023-05-20T07:29:29;98851.06;;;15.20;82.88
72950;BME280;64868;45.710;9.590;2023-05-20T07:32:02;98851.91;;;15.30;82.21
72950;BME280;64868;45.710;9.590;2023-05-20T07:34:34;98847.56;;;15.37;81.51
72950;BME280;64868;45.710;9.590;2023-05-20T07:37:07;98846.84;;;15.35;81.44
72950;BME280;64868;45.710;9.590;2023-05-20T07:39:40;98845.25;;;15.32;81.68
72950;BME280;64868;45.710;9.590;2023-05-20T07:42:10;98843.97;;;15.27;80.97
72950;BME280;64868;45.710;9.590;2023-05-20T07:44:42;98837.59;;;15.17;82.74
72950;BME280;64868;45.710;9.590;2023-05-20T07:47:15;98839.78;;;15.23;82.25
72950;BME280;64868;45.710;9.590;2023-05-20T07:49:43;98834.56;;;15.20;82.63
72950;BME280;64868;45.710;9.590;2023-05-20T07:52:15;98839.91;;;15.21;82.58
72950;BME280;64868;45.710;9.590;2023-05-20T07:54:48;98844.25;;;15.24;83.65
72950;BME280;64868;45.710;9.590;2023-05-20T07:57:18;98839.63;;;15.24;83.21
72950;BME280;64868;45.710;9.590;2023-05-20T07:59:48;98847.72;;;15.26;84.00
72950;BME280;64868;45.710;9.590;2023-05-20T08:02:21;98844.09;;;15.25;83.54
72950;BME280;64868;45.710;9.590;2023-05-20T08:04:54;98844.25;;;15.24;82.89
72950;BME280;64868;45.710;9.590;2023-05-20T08:07:24;98839.34;;;15.27;82.34
72950;BME280;64868;45.710;9.590;2023-05-20T08:09:57;98843.66;;;15.30;82.56
72950;BME280;64868;45.710;9.590;2023-05-20T08:12:30;98849.47;;;15.27;81.78
72950;BME280;64868;45.710;9.590;2023-05-20T08:15:00;98836.16;;;15.22;81.80
72950;BME280;64868;45.710;9.590;2023-05-20T08:17:38;98829.09;;;15.20;82.34
72950;BME280;64868;45.710;9.590;2023-05-20T08:20:11;98835.28;;;15.31;83.07
72950;BME280;64868;45.710;9.590;2023-05-20T08:22:44;98841.91;;;15.48;82.96
72950;BME280;64868;45.710;9.590;2023-05-20T08:25:16;98837.97;;;15.61;82.58
72950;BME280;64868;45.710;9.590;2023-05-20T08:27:49;98837.41;;;15.67;81.58
72950;BME280;64868;45.710;9.590;2023-05-20T08:30:22;98835.97;;;15.72;81.12
72950;BME280;64868;45.710;9.590;2023-05-20T08:32:55;98843.63;;;15.69;80.32
72950;BME280;64868;45.710;9.590;2023-05-20T08:35:25;98839.13;;;15.58;82.67
72950;BME280;64868;45.710;9.590;2023-05-20T08:37:55;98836.94;;;15.71;82.07
72950;BME280;64868;45.710;9.590;2023-05-20T08:40:27;98831.47;;;15.71;82.04
72950;BME280;64868;45.710;9.590;2023-05-20T08:43:00;98836.38;;;15.77;82.40
72950;BME280;64868;45.710;9.590;2023-05-20T08:45:30;98841.69;;;15.79;81.91
72950;BME280;64868;45.710;9.590;2023-05-20T08:48:01;98839.41;;;15.84;82.12
72950;BME280;64868;45.710;9.590;2023-05-20T08:50:34;98846.44;;;15.87;81.10
72950;BME280;64868;45.710;9.590;2023-05-20T08:53:02;98840.63;;;15.99;80.42
72950;BME280;64868;45.710;9.590;2023-05-20T08:55:36;98850.59;;;16.00;80.36
72950;BME280;64868;45.710;9.590;2023-05-20T08:58:11;98852.50;;;16.00;80.46
72950;BME280;64868;45.710;9.590;2023-05-20T09:00:42;98861.88;;;16.07;79.79
72950;BME280;64868;45.710;9.590;2023-05-20T09:03:12;98860.47;;;16.03;79.22
72950;BME280;64868;45.710;9.590;2023-05-20T09:05:45;98860.00;;;16.08;79.68
72950;BME280;64868;45.710;9.590;2023-05-20T09:08:17;98869.09;;;16.18;80.08
72950;BME280;64868;45.710;9.590;2023-05-20T09:10:50;98871.47;;;16.30;79.12
72950;BME280;64868;45.710;9.590;2023-05-20T09:13:23;98875.81;;;16.33;79.81
72950;BME280;64868;45.710;9.590;2023-05-20T09:15:53;98880.59;;;16.31;79.47
72950;BME280;64868;45.710;9.590;2023-05-20T09:18:23;98871.19;;;16.34;79.19
72950;BME280;64868;45.710;9.590;2023-05-20T09:20:55;98890.81;;;16.48;77.94
72950;BME280;64868;45.710;9.590;2023-05-20T09:23:26;98881.63;;;16.58;77.00
72950;BME280;64868;45.710;9.590;2023-05-20T09:26:01;98887.34;;;16.74;77.11
72950;BME280;64868;45.710;9.590;2023-05-20T09:28:35;98885.66;;;16.91;76.57
72950;BME280;64868;45.710;9.590;2023-05-20T09:31:07;98883.22;;;17.06;75.96
72950;BME280;64868;45.710;9.590;2023-05-20T09:33:40;98879.94;;;17.20;74.52
72950;BME280;64868;45.710;9.590;2023-05-20T09:36:14;98887.06;;;17.31;75.51
72950;BME280;64868;45.710;9.590;2023-05-20T09:38:41;98889.50;;;17.51;75.13
72950;BME280;64868;45.710;9.590;2023-05-20T09:41:13;98896.00;;;17.68;74.21
72950;BME280;64868;45.710;9.590;2023-05-20T09:43:46;98894.41;;;17.84;72.94
72950;BME280;64868;45.710;9.590;2023-05-20T09:46:18;98895.69;;;17.89;73.00
72950;BME280;64868;45.710;9.590;2023-05-20T09:48:51;98908.13;;;17.93;72.58
72950;BME280;64868;45.710;9.590;2023-05-20T09:51:22;98906.53;;;17.91;71.74
72950;BME280;64868;45.710;9.590;2023-05-20T09:53:53;98904.69;;;17.73;74.37
72950;BME280;64868;45.710;9.590;2023-05-20T09:56:28;98911.06;;;17.74;71.61
72950;BME280;64868;45.710;9.590;2023-05-20T09:58:57;98909.84;;;17.50;71.74
72950;BME280;64868;45.710;9.590;2023-05-20T10:01:28;98907.53;;;17.46;73.85
72950;BME280;64868;45.710;9.590;2023-05-20T10:04:01;98907.50;;;17.64;72.90
72950;BME280;64868;45.710;9.590;2023-05-20T10:06:42;98914.75;;;17.83;72.09
72950;BME280;64868;45.710;9.590;2023-05-20T10:09:22;98905.63;;;17.82;73.15
72950;BME280;64868;45.710;9.590;2023-05-20T10:12:06;98912.91;;;17.91;73.66
72950;BME280;64868;45.710;9.590;2023-05-20T10:15:15;98905.16;;;18.13;72.00
72950;BME280;64868;45.710;9.590;2023-05-20T10:20:48;98907.84;;;18.05;71.33
72950;BME280;64868;45.710;9.590;2023-05-20T10:23:26;98905.47;;;18.10;71.42
72950;BME280;64868;45.710;9.590;2023-05-20T10:26:05;98898.22;;;18.09;70.69
72950;BME280;64868;45.710;9.590;2023-05-20T10:28:35;98909.16;;;18.18;70.75
72950;BME280;64868;45.710;9.590;2023-05-20T10:31:26;98911.66;;;18.04;71.12
72950;BME280;64868;45.710;9.590;2023-05-20T10:33:57;98899.03;;;18.27;71.82
72950;BME280;64868;45.710;9.590;2023-05-20T10:36:28;98904.25;;;18.38;71.80
72950;BME280;64868;45.710;9.590;2023-05-20T10:39:00;98903.13;;;18.49;71.24
72950;BME280;64868;45.710;9.590;2023-05-20T10:41:33;98888.78;;;18.80;70.10
72950;BME280;64868;45.710;9.590;2023-05-20T10:44:07;98889.88;;;19.03;69.90
72950;BME280;64868;45.710;9.590;2023-05-20T10:46:35;98878.47;;;19.06;69.14
72950;BME280;64868;45.710;9.590;2023-05-20T10:49:18;98884.00;;;18.98;68.65
72950;BME280;64868;45.710;9.590;2023-05-20T10:51:51;98882.44;;;19.04;67.74
72950;BME280;64868;45.710;9.590;2023-05-20T10:54:24;98875.88;;;19.05;67.45
72950;BME280;64868;45.710;9.590;2023-05-20T10:56:54;98880.06;;;19.25;67.22
72950;BME280;64868;45.710;9.590;2023-05-20T10:59:25;98878.16;;;19.42;65.93
72950;BME280;64868;45.710;9.590;2023-05-20T11:01:58;98874.84;;;20.04;66.48
72950;BME280;64868;45.710;9.590;2023-05-20T11:04:31;98854.66;;;20.90;63.58
72950;BME280;64868;45.710;9.590;2023-05-20T11:06:59;98851.91;;;21.44;60.45
72950;BME280;64868;45.710;9.590;2023-05-20T11:09:27;98846.34;;;21.67;60.27
72950;BME280;64868;45.710;9.590;2023-05-20T11:11:57;98832.16;;;22.15;59.09
72950;BME280;64868;45.710;9.590;2023-05-20T11:14:29;98838.25;;;21.95;57.96
72950;BME280;64868;45.710;9.590;2023-05-20T11:17:00;98839.13;;;22.10;59.05
72950;BME280;64868;45.710;9.590;2023-05-20T11:19:31;98832.69;;;21.95;58.49
72950;BME280;64868;45.710;9.590;2023-05-20T11:22:03;98825.28;;;21.73;57.55
72950;BME280;64868;45.710;9.590;2023-05-20T11:24:36;98827.66;;;21.15;59.35
72950;BME280;64868;45.710;9.590;2023-05-20T11:27:07;98825.59;;;21.09;58.61
72950;BME280;64868;45.710;9.590;2023-05-20T11:29:35;98817.13;;;20.79;60.18
72950;BME280;64868;45.710;9.590;2023-05-20T11:32:06;98814.56;;;20.30;59.63
72950;BME280;64868;45.710;9.590;2023-05-20T11:34:35;98824.31;;;20.18;62.31
72950;BME280;64868;45.710;9.590;2023-05-20T11:37:11;98825.38;;;20.17;62.00
72950;BME280;64868;45.710;9.590;2023-05-20T11:39:43;98811.97;;;19.81;62.20
72950;BME280;64868;45.710;9.590;2023-05-20T11:42:13;98812.47;;;19.85;62.91
72950;BME280;64868;45.710;9.590;2023-05-20T11:44:47;98805.78;;;19.71;60.39
72950;BME280;64868;45.710;9.590;2023-05-20T11:47:25;98815.28;;;19.52;63.28
72950;BME280;64868;45.710;9.590;2023-05-20T11:50:01;98811.31;;;19.55;62.82
72950;BME280;64868;45.710;9.590;2023-05-20T11:52:34;98818.56;;;19.48;63.43
72950;BME280;64868;45.710;9.590;2023-05-20T11:55:01;98816.66;;;19.24;63.04
72950;BME280;64868;45.710;9.590;2023-05-20T11:57:34;98808.50;;;18.89;63.45
72950;BME280;64868;45.710;9.590;2023-05-20T12:00:05;98799.47;;;18.71;64.74
72950;BME280;64868;45.710;9.590;2023-05-20T12:02:36;98802.66;;;18.42;65.45
72950;BME280;64868;45.710;9.590;2023-05-20T12:05:10;98816.63;;;18.06;68.19
72950;BME280;64868;45.710;9.590;2023-05-20T12:07:43;98820.31;;;17.81;69.73
72950;BME280;64868;45.710;9.590;2023-05-20T12:10:13;98831.69;;;17.42;70.85
72950;BME280;64868;45.710;9.590;2023-05-20T12:12:43;98835.06;;;17.27;72.04
72950;BME280;64868;45.710;9.590;2023-05-20T12:15:14;98842.03;;;17.22;72.50
72950;BME280;64868;45.710;9.590;2023-05-20T12:17:50;98831.56;;;17.25;72.17
72950;BME280;64868;45.710;9.590;2023-05-20T12:20:21;98838.47;;;17.47;72.22
72950;BME280;64868;45.710;9.590;2023-05-20T12:22:53;98840.00;;;17.68;68.74
72950;BME280;64868;45.710;9.590;2023-05-20T12:25:26;98842.59;;;17.69;68.43
72950;BME280;64868;45.710;9.590;2023-05-20T12:27:58;98850.19;;;17.93;67.81
72950;BME280;64868;45.710;9.590;2023-05-20T12:30:28;98834.63;;;17.84;70.54
72950;BME280;64868;45.710;9.590;2023-05-20T12:33:01;98825.19;;;17.95;71.17
72950;BME280;64868;45.710;9.590;2023-05-20T12:35:42;98833.72;;;18.10;71.06
72950;BME280;64868;45.710;9.590;2023-05-20T12:38:12;98838.16;;;18.03;70.25
72950;BME280;64868;45.710;9.590;2023-05-20T12:40:42;98828.78;;;17.87;71.28
72950;BME280;64868;45.710;9.590;2023-05-20T12:43:12;98820.91;;;17.92;71.20
72950;BME280;64868;45.710;9.590;2023-05-20T12:45:40;98831.72;;;17.68;69.99
72950;BME280;64868;45.710;9.590;2023-05-20T12:48:10;98831.72;;;17.86;71.13
72950;BME280;64868;45.710;9.590;2023-05-20T12:50:40;98822.06;;;17.90;71.00
72950;BME280;64868;45.710;9.590;2023-05-20T12:53:08;98820.63;;;18.04;70.67
72950;BME280;64868;45.710;9.590;2023-05-20T12:55:40;98813.41;;;18.11;71.05
72950;BME280;64868;45.710;9.590;2023-05-20T12:58:10;98803.09;;;18.21;69.82
72950;BME280;64868;45.710;9.590;2023-05-20T13:00:41;98805.31;;;18.17;70.69
72950;BME280;64868;45.710;9.590;2023-05-20T13:03:11;98801.66;;;18.09;71.40
72950;BME280;64868;45.710;9.590;2023-05-20T13:05:41;98805.69;;;18.22;72.57
72950;BME280;64868;45.710;9.590;2023-05-20T13:08:14;98795.53;;;18.23;71.96
72950;BME280;64868;45.710;9.590;2023-05-20T13:10:46;98802.22;;;18.20;72.67
72950;BME280;64868;45.710;9.590;2023-05-20T13:13:19;98791.44;;;18.01;72.75
72950;BME280;64868;45.710;9.590;2023-05-20T13:15:51;98783.69;;;17.96;74.10
72950;BME280;64868;45.710;9.590;2023-05-20T13:18:18;98771.78;;;17.96;73.48
72950;BME280;64868;45.710;9.590;2023-05-20T13:20:51;98771.09;;;18.02;75.04
72950;BME280;64868;45.710;9.590;2023-05-20T13:23:19;98765.09;;;18.07;74.98
72950;BME280;64868;45.710;9.590;2023-05-20T13:25:51;98756.59;;;18.42;74.08
72950;BME280;64868;45.710;9.590;2023-05-20T13:28:19;98763.44;;;18.73;72.73